Terminal Aerodrome Forecast
Issued by NWS Grand Forks, ND

Home | Current Version | Previous Version | Text Only | Print | Product List | Glossary On
Versions: 1 2 3 4 5 6 7 8 9 10 11 12 13 14 15 16 17 18
000
FTUS43 KFGF 241720
TAFGFK
TAF
KGFK 241720Z 2418/2518 15014G22KT P6SM FEW150
     FM251100 15012KT P6SM BKN100
     FM251500 16015G25KT P6SM BKN070=

USA.gov is the U.S. government's official web portal to all federal, state and local government web resources and services.